LFPB/LBG METAR and TAF weather

Enter ICAO airport designator
Station Type Date Time Source
LFPB METAR 2019/12/09 22:00 UTC NOAA

LFPB 092200Z AUTO 26003KT CAVOK 04/M01 Q1025 NOSIG


Station Type Date Time Source
LFPB Decoded METAR 2019/12/09 22:00 UTC NOAA

Paris / Le Bourget, France (LFPB) 48-58N 002-27E 65M
Dec 09, 2019 - 05:00 PM EST / 2019.12.09 2200 UTC
Wind: from the W (260 degrees) at 3 MPH (3 KT):0
Visibility: greater than 7 mile(s):0
Temperature: 39 F (4 C)
Dew Point: 30 F (-1 C)
Relative Humidity: 69%
Pressure (altimeter): 30.27 in. Hg (1025 hPa)
ob: LFPB 092200Z AUTO 26003KT CAVOK 04/M01 Q1025 NOSIG
cycle: 22

Station Type Date Time Source
LFPB TAF 2019/12/09 18:42 UTC NOAA

TAF TAF LFPB 091700Z 0918/1018 32015G25KT 9999 SCT040
BECMG 0918/0920 30010KT
BECMG 1000/1002 24003KT PROB30 1005/1007 4000 BR
BECMG 1014/1016 19015G25KT

Example: see airport list